• Join FlightAware (Why Join?)
  • Login
  • US Flag 
12:27PM EDT


 

Airport Tracker/Info


-or-


 

Live Flight TrackerFlight Track Log ✈ DAL6066 ✈ 15-Feb-2014 ✈ KPHL - KJFK

Flight Track Log - Related Links

Times and Time Zones

All times are in EST time to prevent confusion due to time zone crossing. See the DAL6066 flight status page for this flight to view local times or setup timezone preferences in your user account.

Time Position Orientation Groundspeed Altitude Reporting Facility
EST Latitude Longitude Course Direction KTS MPH feet Rate Location/Type
03:15PM 39.8667 -75.2167 90° East 158 182 1,100  Level Philadelphia TRACON
03:16PM 39.8667 -75.1500 90° East 249 287 2,200 2,100 Climbing Philadelphia TRACON
03:18PM 39.7975 -74.7709 105° East  Level FlightAware Approximate
03:18PM 39.8281 -74.9742 106° East 263 303 7,500  Level New York Center
03:19PM 39.7925 -74.6544 75° East  Level FlightAware Approximate
03:19PM 39.8131 -74.8678 100° East 268 308 9,800  Level New York Center
03:20PM 39.8000 -74.5352 90° East  Level FlightAware Approximate
03:20PM 39.8003 -74.7564 98° East 289 333 10,900  Level New York Center
03:21PM 39.8003 -74.6347 90° East 316 364 11,800 480 Climbing New York Center
03:22PM 39.8128 -74.5031 83° East 340 391 11,900  Climbing New York Center
03:23PM 39.8186 -74.3844 86° East 371 427 11,900 -240 Level New York Center
03:24PM 39.7822 -74.2717 113° Southeast 338 389 11,500 -540 Descending New York Center
03:25PM 39.7458 -74.1647 114° Southeast 305 351 10,900 -300 Descending New York Center
03:26PM 39.7942 -74.0831 52° Northeast 244 281 11,000  Climbing New York Center
03:27PM 39.8542 -74.0264 36° Northeast 254 292 11,000  Level New York Center
03:28PM 39.9183 -73.9644 37° Northeast 276 318 11,000  Level New York Center
03:29PM 39.9911 -73.8919 37° Northeast 294 338 11,000  Level New York Center
03:30PM 40.0511 -73.8242 41° Northeast 294 338 11,000 -720 Level New York Center
03:31PM 40.1053 -73.7481 47° Northeast 283 326 9,600 -1,860 Descending New York Center
03:32PM 40.1661 -73.7289 14° North 236 272 7,300 -2,100 Descending New York Center
03:33PM 40.2039 -73.8092 302° West 207 238 5,500 -1,560 Descending New York Center
03:34PM 40.2436 -73.8789 307° West 237 273 4,200 -1,140 Descending New York Center
03:35PM 40.2839 -73.9353 313° West 243 280 3,300 -600 Descending New York Center
03:36PM 40.3417 -73.9514 348° North 206 237 3,000 -180 Descending New York Center
03:37PM 40.3914 -73.9619 351° North 206 237 3,000  Level New York Center
03:38PM 40.4444 -73.9264 27° Northeast 182 209 3,000  Level New York Center
03:39PM 40.4828 -73.8981 29° Northeast 187 215 3,000 -300 Level New York Center
03:40PM 40.5253 -73.8644 31° Northeast 172 198 2,400 -600 Descending New York Center
03:41PM 40.5572 -73.8386 32° Northeast 142 163 1,800 -720 Descending New York Center
03:42PM 40.5847 -73.8181 30° Northeast 122 140 1,000 -780 Descending New York Center
03:43PM 40.6167 -73.7833 40° Northeast 130 150 200 -720 Descending New York TRACON